Time;durP1;ratioP1;P1;durP2;ratioP2;P2;SDS_P1;SDS_P2;PMS_P1;PMS_P2;Temp;Humidity;BMP_temperature;BMP_pressure;BME280_temperature;BME280_humidity;BME280_pressure;Samples;Min_cycle;Max_cycle;Signal;HPM_P1;HPM_P2
2023/10/11 00:02:09;;;;;;;24.95;11.80;;;15.90;99.90;;;;;;5047557;28;20459;-55
2023/10/11 00:04:36;;;;;;;24.55;12.10;;;15.90;99.90;;;;;;5022271;28;20041;-54
2023/10/11 00:07:04;;;;;;;26.38;11.93;;;15.90;99.90;;;;;;5052074;28;20072;-55
2023/10/11 00:09:38;;;;;;;20.30;11.45;;;15.90;99.90;;;;;;5059159;28;20049;-56
2023/10/11 00:12:05;;;;;;;18.33;10.67;;;15.90;99.90;;;;;;4692978;28;10000056;-56
2023/10/11 00:14:32;;;;;;;23.95;11.07;;;15.80;99.90;;;;;;5053776;28;20081;-55
2023/10/11 00:16:59;;;;;;;25.98;11.57;;;15.90;99.90;;;;;;5047319;28;20053;-55
2023/10/11 00:19:29;;;;;;;24.02;11.98;;;15.90;99.90;;;;;;5050799;28;20456;-55
2023/10/11 00:21:56;;;;;;;18.75;11.25;;;15.80;99.90;;;;;;5040836;28;20048;-55
2023/10/11 00:24:23;;;;;;;23.63;11.50;;;15.80;99.90;;;;;;5058878;28;20102;-56
2023/10/11 00:26:51;;;;;;;23.65;11.18;;;15.80;99.90;;;;;;5029905;28;20045;-56
2023/10/11 00:29:18;;;;;;;28.63;11.45;;;15.80;99.90;;;;;;5055297;28;20534;-56
2023/10/11 00:31:45;;;;;;;18.63;11.00;;;15.80;99.90;;;;;;5055998;28;20040;-56
2023/10/11 00:34:13;;;;;;;22.08;12.50;;;15.80;99.90;;;;;;5050162;28;20136;-55
2023/10/11 00:36:43;;;;;;;25.08;12.45;;;15.70;99.90;;;;;;5060439;28;20086;-56
2023/10/11 00:39:16;;;;;;;24.65;11.40;;;15.80;99.90;;;;;;5046294;28;20036;-57
2023/10/11 00:41:47;;;;;;;20.73;11.85;;;15.80;99.90;;;;;;5059616;28;20451;-56
2023/10/11 00:44:20;;;;;;;26.95;11.18;;;15.80;99.90;;;;;;5053827;28;20493;-55
2023/10/11 00:49:34;;;;;;;24.33;11.55;;;15.80;99.90;;;;;;5043898;28;20296;-56
2023/10/11 00:52:06;;;;;;;23.95;11.85;;;15.70;99.90;;;;;;5058047;28;20427;-56
2023/10/11 00:54:34;;;;;;;16.50;11.18;;;15.70;99.90;;;;;;5042949;28;20090;-55
2023/10/11 00:57:01;;;;;;;22.20;11.15;;;15.70;99.90;;;;;;5059203;28;20106;-56
2023/10/11 00:59:28;;;;;;;24.48;11.80;;;15.70;99.90;;;;;;5045409;28;20397;-56
2023/10/11 01:01:55;;;;;;;23.65;11.18;;;15.70;99.90;;;;;;5039667;28;20052;-57
2023/10/11 01:04:25;;;;;;;30.27;13.18;;;15.70;99.90;;;;;;5063075;28;20114;-55
2023/10/11 01:06:52;;;;;;;21.50;10.73;;;15.70;99.90;;;;;;5035850;28;20567;-54
2023/10/11 01:09:26;;;;;;;29.75;11.90;;;15.70;99.90;;;;;;5052435;28;20450;-56
2023/10/11 01:11:53;;;;;;;;;;;15.70;99.90;;;;;;5057785;28;20040;-55
2023/10/11 01:14:23;;;;;;;27.38;11.50;;;15.80;99.90;;;;;;5057987;28;19925;-54
2023/10/11 01:16:52;;;;;;;31.58;13.15;;;15.80;99.90;;;;;;5051710;28;20526;-56
2023/10/11 01:19:20;;;;;;;21.70;11.60;;;15.80;99.90;;;;;;5058723;28;20049;-55
2023/10/11 01:21:54;;;;;;;22.70;12.35;;;15.80;99.90;;;;;;5033296;28;20094;-57
2023/10/11 01:24:21;;;;;;;25.10;12.65;;;15.90;99.90;;;;;;5064364;28;20048;-55
2023/10/11 01:26:48;;;;;;;21.65;11.15;;;15.90;99.90;;;;;;5060167;28;20592;-55
2023/10/11 01:29:16;;;;;;;28.85;12.70;;;15.90;99.90;;;;;;5043700;28;20044;-55
2023/10/11 01:31:43;;;;;;;21.92;10.35;;;15.90;99.90;;;;;;5048398;28;20044;-56
2023/10/11 01:34:14;;;;;;;29.88;10.25;;;16.00;99.90;;;;;;5053925;28;20107;-55
2023/10/11 01:36:42;;;;;;;24.52;11.70;;;16.00;99.90;;;;;;5059507;28;20048;-57
2023/10/11 01:39:11;;;;;;;20.42;11.07;;;16.00;99.90;;;;;;5043846;28;20048;-54
2023/10/11 01:41:42;;;;;;;30.13;12.45;;;16.00;99.90;;;;;;5050211;28;20137;-56
2023/10/11 01:44:10;;;;;;;24.92;10.57;;;16.10;99.90;;;;;;5060364;28;20507;-55
2023/10/11 01:46:39;;;;;;;23.23;11.80;;;16.20;99.90;;;;;;5062231;28;20099;-55
2023/10/11 01:49:10;;;;;;;21.83;10.30;;;16.20;99.90;;;;;;5058965;28;20136;-55
2023/10/11 01:51:46;;;;;;;23.05;11.00;;;16.20;99.90;;;;;;5062111;28;20285;-56
2023/10/11 01:54:18;;;;;;;22.80;10.65;;;16.20;99.90;;;;;;5059445;28;20407;-56
2023/10/11 01:56:47;;;;;;;28.65;11.10;;;16.20;99.90;;;;;;5062600;28;20043;-56
2023/10/11 01:59:15;;;;;;;21.08;11.25;;;16.20;99.90;;;;;;5047722;28;20110;-55
2023/10/11 02:01:48;;;;;;;19.80;9.98;;;16.20;99.90;;;;;;5060205;28;20040;-55
2023/10/11 02:04:20;;;;;;;23.92;11.57;;;16.20;99.90;;;;;;5057661;28;20145;-57
2023/10/11 02:06:54;;;;;;;17.00;10.68;;;16.30;99.90;;;;;;5060960;28;20462;-58
2023/10/11 02:09:21;;;;;;;25.15;10.07;;;16.30;99.90;;;;;;5047017;28;20105;-56
2023/10/11 02:11:52;;;;;;;22.15;11.02;;;16.30;99.90;;;;;;5062058;28;20081;-55
2023/10/11 02:14:22;;;;;;;24.23;11.13;;;16.30;99.90;;;;;;5056926;28;20094;-56
2023/10/11 02:16:49;;;;;;;30.05;11.45;;;16.40;99.90;;;;;;5061622;28;20503;-56
2023/10/11 02:19:15;;;;;;;23.80;10.00;;;16.40;99.90;;;;;;5059574;28;20056;-56
2023/10/11 02:21:44;;;;;;;21.80;10.85;;;16.40;99.90;;;;;;5053232;28;20272;-57
2023/10/11 02:24:14;;;;;;;19.50;10.55;;;16.50;99.90;;;;;;5055216;28;20131;-56
2023/10/11 02:26:49;;;;;;;21.92;10.63;;;16.40;99.90;;;;;;5063834;28;20048;-56
2023/10/11 02:29:22;;;;;;;23.42;9.75;;;16.40;99.90;;;;;;5047052;28;20049;-57
2023/10/11 02:31:50;;;;;;;20.77;11.27;;;16.40;99.90;;;;;;5038205;28;20056;-57
2023/10/11 02:34:17;;;;;;;17.67;10.13;;;16.40;99.90;;;;;;5054636;28;20048;-56
2023/10/11 02:36:46;;;;;;;23.70;10.43;;;16.40;99.90;;;;;;5041819;28;20239;-56
2023/10/11 02:39:20;;;;;;;17.40;10.98;;;16.40;99.90;;;;;;5030991;28;20244;-56
2023/10/11 02:41:55;;;;;;;20.00;10.88;;;16.40;99.90;;;;;;5042777;28;20124;-56
2023/10/11 02:44:22;;;;;;;22.05;10.23;;;16.40;99.90;;;;;;5032573;28;20067;-56
2023/10/11 02:46:50;;;;;;;20.77;10.10;;;16.40;99.90;;;;;;5049000;28;20290;-54
2023/10/11 02:49:20;;;;;;;22.08;11.48;;;16.40;99.90;;;;;;5048324;28;20045;-56
2023/10/11 02:52:05;;;;;;;19.20;10.85;;;16.40;99.90;;;;;;5058146;28;20080;-57
2023/10/11 02:54:39;;;;;;;22.10;11.35;;;16.40;99.90;;;;;;5056374;28;20232;-55
2023/10/11 02:57:20;;;;;;;23.88;10.80;;;16.40;99.90;;;;;;5044333;28;20041;-57
2023/10/11 02:59:50;;;;;;;19.27;10.85;;;16.40;99.90;;;;;;5048194;28;20110;-56
2023/10/11 03:02:20;;;;;;;18.58;10.02;;;16.50;99.90;;;;;;5062007;28;20048;-56
2023/10/11 03:04:48;;;;;;;19.15;10.27;;;16.50;99.90;;;;;;5057122;28;20045;-56
2023/10/11 03:07:21;;;;;;;16.35;10.07;;;16.40;99.90;;;;;;5054858;28;20477;-56
2023/10/11 03:09:49;;;;;;;22.42;11.00;;;16.40;99.90;;;;;;5059512;28;20055;-58
2023/10/11 03:12:18;;;;;;;24.92;11.00;;;16.40;99.90;;;;;;5040748;28;20094;-56
2023/10/11 03:14:46;;;;;;;22.60;11.18;;;16.40;99.90;;;;;;5047611;28;20057;-56
2023/10/11 03:17:13;;;;;;;20.55;10.98;;;16.40;99.90;;;;;;5048005;28;20523;-56
2023/10/11 03:19:43;;;;;;;23.77;10.20;;;16.40;99.90;;;;;;5061212;28;20049;-56
2023/10/11 03:22:23;;;;;;;17.73;10.15;;;16.40;99.90;;;;;;5040754;28;20314;-55
2023/10/11 03:24:53;;;;;;;21.80;10.25;;;16.30;99.90;;;;;;5061353;28;20569;-57
2023/10/11 03:27:23;;;;;;;21.17;10.40;;;16.40;99.90;;;;;;5040621;28;20498;-56
2023/10/11 03:29:53;;;;;;;17.17;9.27;;;16.30;99.90;;;;;;5043440;28;20044;-57
2023/10/11 03:32:24;;;;;;;23.00;11.27;;;16.30;99.90;;;;;;5057908;28;20509;-55
2023/10/11 03:34:52;;;;;;;21.90;10.02;;;16.30;99.90;;;;;;5024737;28;20304;-56
2023/10/11 03:37:19;;;;;;;34.55;11.07;;;16.40;99.90;;;;;;5061064;28;20044;-57
2023/10/11 03:39:55;;;;;;;26.77;11.68;;;16.40;99.90;;;;;;5060800;28;20040;-55
2023/10/11 03:45:08;;;;;;;19.33;10.43;;;16.40;99.90;;;;;;5055976;28;20036;-56
2023/10/11 03:47:37;;;;;;;20.63;10.30;;;16.40;99.90;;;;;;5049936;28;20076;-56
2023/10/11 03:50:06;;;;;;;23.60;10.85;;;16.50;99.90;;;;;;5037524;28;20071;-58
2023/10/11 03:52:33;;;;;;;26.73;10.10;;;16.50;99.90;;;;;;5058222;28;20064;-58
2023/10/11 03:55:10;;;;;;;20.73;10.02;;;16.60;99.90;;;;;;5065088;28;20053;-57
2023/10/11 03:57:41;;;;;;;21.80;9.45;;;16.60;99.90;;;;;;5065680;28;20136;-56
2023/10/11 04:00:46;;;;;;;21.80;10.45;;;16.60;99.90;;;;;;5057164;28;20171;-59
2023/10/11 04:02:57;;;;;;;16.95;9.30;;;16.60;99.90;;;;;;5045384;28;20049;-56
2023/10/11 04:05:35;;;;;;;14.75;9.52;;;16.60;99.90;;;;;;5051977;28;20391;-57
2023/10/11 04:08:05;;;;;;;24.92;11.23;;;16.70;99.90;;;;;;5052873;28;20062;-56
2023/10/11 04:10:39;;;;;;;26.98;10.18;;;16.70;99.90;;;;;;5046971;28;20063;-55
2023/10/11 04:13:14;;;;;;;19.38;8.70;;;16.70;99.90;;;;;;5041329;28;20048;-56
2023/10/11 04:15:49;;;;;;;20.67;9.10;;;16.70;99.90;;;;;;5048012;28;20105;-56
2023/10/11 04:23:56;;;;;;;19.88;8.95;;;16.80;99.90;;;;;;5007461;28;20059;-57
2023/10/11 04:26:33;;;;;;;17.83;8.50;;;16.80;99.90;;;;;;5053729;28;20504;-57
2023/10/11 04:29:06;;;;;;;17.80;8.18;;;16.80;99.90;;;;;;5042740;28;20044;-57
2023/10/11 04:31:53;;;;;;;16.92;8.73;;;16.90;99.90;;;;;;5053420;28;20048;-56
2023/10/11 04:34:23;;;;;;;16.13;8.10;;;16.90;99.90;;;;;;5051850;28;20076;-56
2023/10/11 04:36:55;;;;;;;18.92;8.00;;;16.90;99.90;;;;;;5054824;28;20069;-56
2023/10/11 04:39:33;;;;;;;18.10;8.57;;;16.90;99.90;;;;;;5049444;28;20412;-57
2023/10/11 04:42:01;;;;;;;20.67;9.32;;;17.00;99.90;;;;;;5062985;28;20045;-55
2023/10/11 04:44:42;;;;;;;19.05;8.32;;;17.00;99.90;;;;;;5030445;28;20060;-57
2023/10/11 04:47:10;;;;;;;19.23;8.55;;;16.90;99.90;;;;;;5054071;28;20393;-56
2023/10/11 04:49:37;;;;;;;27.63;8.70;;;17.00;99.90;;;;;;5061769;28;20053;-57
2023/10/11 04:52:10;;;;;;;16.60;8.45;;;17.00;99.90;;;;;;5053614;28;20073;-57
2023/10/11 04:54:42;;;;;;;23.80;7.65;;;17.00;99.90;;;;;;5040273;28;20049;-57
2023/10/11 04:57:17;;;;;;;18.90;8.10;;;17.10;99.90;;;;;;5045067;28;20048;-59
2023/10/11 04:59:46;;;;;;;15.30;8.02;;;17.10;99.90;;;;;;5058205;28;20051;-56
2023/10/11 05:02:24;;;;;;;13.82;7.75;;;17.00;99.90;;;;;;5062948;28;20254;-57
2023/10/11 05:04:53;;;;;;;17.60;7.57;;;17.00;99.90;;;;;;5053318;28;20049;-56
2023/10/11 05:07:21;;;;;;;19.30;7.35;;;17.00;99.90;;;;;;5046039;28;20045;-57
2023/10/11 05:10:01;;;;;;;20.00;8.13;;;17.10;99.90;;;;;;5062566;28;20052;-56
2023/10/11 05:12:27;;;;;;;16.08;7.13;;;17.10;99.90;;;;;;5049725;28;20067;-56
2023/10/11 05:14:56;;;;;;;15.90;7.38;;;17.20;99.90;;;;;;5061765;28;20300;-57
2023/10/11 05:17:33;;;;;;;17.25;8.48;;;17.20;99.90;;;;;;5053067;28;20073;-55
2023/10/11 05:22:49;;;;;;;15.25;7.78;;;17.20;99.90;;;;;;5032495;28;20052;-57
2023/10/11 05:25:39;;;;;;;20.13;7.93;;;17.20;99.90;;;;;;5051417;28;20090;-58
2023/10/11 05:28:26;;;;;;;17.33;7.55;;;17.20;99.90;;;;;;5048481;28;20045;-58
2023/10/11 05:34:29;;;;;;;18.20;7.97;;;17.20;99.90;;;;;;5059336;28;20051;-56
2023/10/11 05:50:54;;;;;;;16.33;8.07;;;17.20;99.90;;;;;;5044801;28;20405;-57
2023/10/11 05:53:24;;;;;;;20.23;8.13;;;17.20;99.90;;;;;;5042555;28;20212;-56
2023/10/11 05:55:51;;;;;;;17.13;8.30;;;17.20;99.90;;;;;;5051029;28;20064;-57
2023/10/11 05:58:19;;;;;;;14.73;6.95;;;17.20;99.90;;;;;;5057533;28;20068;-55
2023/10/11 06:00:53;;;;;;;14.48;6.97;;;17.20;99.90;;;;;;5057763;28;20052;-57
2023/10/11 06:03:21;;;;;;;19.42;7.60;;;17.30;99.90;;;;;;5048820;28;20532;-58
2023/10/11 06:05:51;;;;;;;18.15;7.93;;;17.30;99.90;;;;;;5047885;28;20117;-58
2023/10/11 06:08:18;;;;;;;12.40;7.18;;;17.30;99.90;;;;;;5059934;28;20161;-56
2023/10/11 06:10:45;;;;;;;15.52;7.50;;;17.30;99.90;;;;;;5055258;28;20048;-56
2023/10/11 06:13:13;;;;;;;19.23;7.53;;;17.30;99.90;;;;;;5055308;28;20114;-57
2023/10/11 06:15:58;;;;;;;26.10;9.65;;;17.30;99.90;;;;;;5045426;28;20135;-58
2023/10/11 06:18:55;;;;;;;20.33;7.57;;;17.30;99.90;;;;;;5049549;28;20045;-58
2023/10/11 06:21:33;;;;;;;16.10;7.63;;;17.30;99.90;;;;;;5050446;28;20041;-57
2023/10/11 06:24:00;;;;;;;22.92;8.88;;;17.30;99.90;;;;;;5047129;28;20043;-55
2023/10/11 06:29:24;;;;;;;25.15;9.43;;;17.40;99.90;;;;;;5020348;28;20033;-58
2023/10/11 06:31:53;;;;;;;19.27;8.65;;;17.40;99.90;;;;;;5050673;28;20049;-56
2023/10/11 06:34:35;;;;;;;;;;;17.40;99.90;;;;;;5049595;28;20072;-51
2023/10/11 06:37:02;;;;;;;22.48;8.32;;;17.50;99.90;;;;;;5050342;28;19932;-53
2023/10/11 06:44:52;;;;;;;25.85;8.55;;;17.50;99.90;;;;;;5038105;28;20096;-54
2023/10/11 06:47:20;;;;;;;26.70;7.82;;;17.50;99.90;;;;;;5052977;28;20071;-54
2023/10/11 06:49:54;;;;;;;16.02;7.68;;;17.50;99.90;;;;;;5042703;28;20072;-54
2023/10/11 06:52:25;;;;;;;22.00;7.65;;;17.50;99.90;;;;;;5029064;28;20052;-54
2023/10/11 06:57:54;;;;;;;16.52;7.30;;;17.60;99.90;;;;;;5049952;28;20559;-55
2023/10/11 07:00:23;;;;;;;24.55;8.23;;;17.60;99.90;;;;;;5020585;28;20049;-52
2023/10/11 07:03:09;;;;;;;21.45;7.75;;;17.70;99.90;;;;;;5049478;28;20139;-54
2023/10/11 07:05:41;;;;;;;27.55;9.02;;;17.70;99.90;;;;;;5031893;28;20452;-52
2023/10/11 07:08:09;;;;;;;21.90;8.10;;;17.70;99.90;;;;;;5048220;28;20137;-55
2023/10/11 07:10:45;;;;;;;24.42;8.45;;;17.80;99.90;;;;;;5016175;28;20574;-54
2023/10/11 07:13:13;;;;;;;23.90;8.25;;;17.80;99.90;;;;;;5050747;28;20688;-53
2023/10/11 07:15:44;;;;;;;20.40;8.70;;;17.80;99.90;;;;;;5051798;28;20071;-50
2023/10/11 07:18:24;;;;;;;22.35;7.57;;;17.90;99.90;;;;;;5039297;28;20431;-53
2023/10/11 07:21:08;;;;;;;20.08;8.32;;;17.90;99.90;;;;;;5055015;28;20510;-56
2023/10/11 07:23:46;;;;;;;23.45;8.40;;;17.90;99.90;;;;;;5043451;28;20045;-54
2023/10/11 07:29:00;;;;;;;16.27;9.07;;;17.90;99.90;;;;;;5053252;28;20136;-50
2023/10/11 07:31:33;;;;;;;22.63;8.80;;;17.90;99.90;;;;;;5049923;28;20101;-54
2023/10/11 07:34:05;;;;;;;;;;;18.00;99.90;;;;;;5028503;28;20049;-54
2023/10/11 07:36:33;;;;;;;22.60;7.82;;;18.00;99.90;;;;;;5041319;28;19925;-54
2023/10/11 07:39:14;;;;;;;25.05;8.20;;;18.00;99.90;;;;;;5037449;28;20110;-51
2023/10/11 07:41:44;;;;;;;18.50;8.73;;;18.00;99.90;;;;;;5037125;28;20045;-56
2023/10/11 07:44:12;;;;;;;26.30;8.55;;;18.10;99.90;;;;;;5031430;28;20056;-54
2023/10/11 07:47:32;;;;;;;19.17;9.00;;;18.10;99.90;;;;;;5036040;28;20041;-54
2023/10/11 07:49:37;;;;;;;15.45;8.05;;;18.10;99.90;;;;;;5030806;28;20084;-54
2023/10/11 07:52:08;;;;;;;17.35;8.77;;;18.20;99.90;;;;;;5044514;28;20071;-54
2023/10/11 07:54:39;;;;;;;19.77;9.15;;;18.20;99.90;;;;;;5050893;28;20095;-53
2023/10/11 07:57:14;;;;;;;22.20;8.63;;;18.20;99.90;;;;;;5065580;28;20098;-55
2023/10/11 07:59:45;;;;;;;23.20;9.77;;;18.30;99.90;;;;;;5059574;28;20052;-55
2023/10/11 08:02:29;;;;;;;24.05;8.60;;;18.30;99.90;;;;;;5064030;28;20059;-55
2023/10/11 08:04:57;;;;;;;18.17;9.02;;;18.30;99.90;;;;;;5058343;28;20048;-55
2023/10/11 08:07:24;;;;;;;19.48;8.88;;;18.30;99.90;;;;;;5064412;28;20108;-55
2023/10/11 08:09:55;;;;;;;18.50;8.35;;;18.30;99.90;;;;;;5050903;28;20053;-56
2023/10/11 08:12:23;;;;;;;20.92;8.73;;;18.30;99.90;;;;;;5062902;28;20048;-55
2023/10/11 08:14:56;;;;;;;26.25;12.00;;;18.30;99.90;;;;;;5061237;28;20183;-55
2023/10/11 08:17:29;;;;;;;19.27;8.10;;;18.30;99.90;;;;;;5046998;28;20143;-55
2023/10/11 08:19:57;;;;;;;20.17;8.57;;;18.30;99.90;;;;;;5033855;28;20785;-56
2023/10/11 08:22:23;;;;;;;22.77;8.27;;;18.30;99.90;;;;;;5055098;28;20052;-53
2023/10/11 08:24:52;;;;;;;20.85;8.10;;;18.30;99.90;;;;;;5053491;28;20098;-53
2023/10/11 08:27:28;;;;;;;18.45;8.55;;;18.30;99.90;;;;;;5055867;28;20052;-53
2023/10/11 08:32:47;;;;;;;26.15;8.60;;;18.40;99.90;;;;;;5060665;28;20049;-56
2023/10/11 08:35:26;;;;;;;20.15;7.95;;;18.40;99.90;;;;;;5064140;28;20081;-56
2023/10/11 08:37:53;;;;;;;15.82;7.53;;;18.50;99.90;;;;;;5062459;28;20142;-55
2023/10/11 08:40:29;;;;;;;16.23;8.52;;;18.50;99.90;;;;;;5047596;28;20044;-56
2023/10/11 08:43:01;;;;;;;14.98;7.75;;;18.50;99.90;;;;;;5058314;28;20512;-58
2023/10/11 08:45:32;;;;;;;18.70;7.10;;;18.60;99.90;;;;;;5034681;28;20084;-56
2023/10/11 08:48:06;;;;;;;15.18;6.57;;;18.60;99.90;;;;;;5060843;28;20143;-56
2023/10/11 08:50:37;;;;;;;28.77;7.57;;;18.70;99.90;;;;;;5052897;28;20052;-58
2023/10/11 08:53:07;;;;;;;21.20;8.65;;;18.70;99.90;;;;;;5031806;28;20037;-55
2023/10/11 08:55:36;;;;;;;17.58;7.15;;;18.70;99.90;;;;;;5059147;28;20395;-54
2023/10/11 08:58:04;;;;;;;12.18;5.63;;;18.70;99.90;;;;;;5041500;28;20095;-56
2023/10/11 09:00:33;;;;;;;16.17;7.40;;;18.80;99.90;;;;;;5053649;28;20059;-55
2023/10/11 09:03:18;;;;;;;16.58;6.80;;;18.80;99.90;;;;;;5057249;28;20075;-55
2023/10/11 09:05:47;;;;;;;22.85;6.95;;;18.90;99.90;;;;;;5053862;28;20048;-55
2023/10/11 09:08:27;;;;;;;14.05;5.95;;;18.90;99.90;;;;;;5058055;28;20045;-55
2023/10/11 09:11:14;;;;;;;16.10;6.90;;;18.90;99.90;;;;;;5064160;28;20040;-55
2023/10/11 09:13:41;;;;;;;15.45;6.20;;;18.90;99.90;;;;;;5050850;28;20051;-55
2023/10/11 09:16:14;;;;;;;15.75;7.00;;;18.90;99.90;;;;;;5063947;28;20047;-55
2023/10/11 09:18:42;;;;;;;18.25;7.10;;;19.00;99.90;;;;;;5041855;28;20510;-56
2023/10/11 09:21:18;;;;;;;16.25;7.13;;;18.90;99.90;;;;;;5063536;28;20131;-53
2023/10/11 09:23:49;;;;;;;18.40;6.70;;;18.90;99.90;;;;;;5057500;28;20125;-55
2023/10/11 09:26:32;;;;;;;18.98;7.47;;;18.90;99.90;;;;;;5062413;28;20053;-56
2023/10/11 09:29:08;;;;;;;16.55;6.68;;;18.90;99.90;;;;;;5049504;28;20098;-55
2023/10/11 09:31:35;;;;;;;15.20;6.65;;;19.00;99.90;;;;;;5063771;28;20045;-55
2023/10/11 09:34:04;;;;;;;14.20;6.85;;;19.00;99.90;;;;;;5023485;28;20115;-54
2023/10/11 09:36:31;;;;;;;16.58;7.30;;;19.00;99.90;;;;;;5037266;28;20059;-55
2023/10/11 09:38:58;;;;;;;12.68;6.65;;;19.00;99.90;;;;;;5036712;28;20036;-56
2023/10/11 09:41:26;;;;;;;20.98;7.78;;;19.00;99.90;;;;;;5063857;28;20044;-56
2023/10/11 09:43:57;;;;;;;16.98;7.32;;;19.10;99.90;;;;;;5056803;28;20459;-55
2023/10/11 09:46:31;;;;;;;13.85;6.28;;;19.10;99.90;;;;;;5063719;28;20060;-55
2023/10/11 09:49:03;;;;;;;17.45;7.40;;;19.20;99.90;;;;;;5062775;28;20067;-53
2023/10/11 09:51:30;;;;;;;15.07;6.33;;;19.30;99.90;;;;;;5064803;28;20048;-55
2023/10/11 09:54:07;;;;;;;16.77;6.75;;;19.30;99.90;;;;;;5033130;28;20123;-55
2023/10/11 09:56:57;;;;;;;11.90;6.30;;;19.30;99.90;;;;;;5064183;28;20048;-55
2023/10/11 09:59:59;;;;;;;9.75;5.75;;;19.30;99.90;;;;;;5028958;28;20452;-56
2023/10/11 10:02:44;;;;;;;14.63;5.32;;;19.40;99.90;;;;;;5025001;28;20050;-55
2023/10/11 10:05:11;;;;;;;15.73;5.65;;;19.40;99.90;;;;;;5014716;28;20042;-57
2023/10/11 10:07:44;;;;;;;11.48;5.57;;;19.40;99.90;;;;;;5024949;28;20459;-57
2023/10/11 10:10:13;;;;;;;12.90;4.90;;;19.50;99.90;;;;;;5039239;28;20559;-55
2023/10/11 10:12:59;;;;;;;13.45;5.05;;;19.50;99.90;;;;;;5024588;28;20273;-56
2023/10/11 10:15:33;;;;;;;12.68;4.57;;;19.60;99.90;;;;;;5040344;28;20057;-55
2023/10/11 10:18:03;;;;;;;8.88;4.43;;;19.70;99.90;;;;;;5024004;28;20556;-56
2023/10/11 10:20:34;;;;;;;9.68;3.80;;;19.70;99.90;;;;;;5034840;28;20125;-57
2023/10/11 10:23:16;;;;;;;12.45;5.40;;;19.70;99.90;;;;;;5024672;28;20128;-55
2023/10/11 10:26:03;;;;;;;9.65;4.80;;;19.70;99.90;;;;;;5024708;28;20056;-56
2023/10/11 10:28:34;;;;;;;15.45;4.95;;;19.70;99.90;;;;;;5023476;28;20197;-54
2023/10/11 10:31:11;;;;;;;9.05;4.82;;;19.70;99.90;;;;;;5014363;28;20045;-55
2023/10/11 10:33:39;;;;;;;14.35;5.03;;;19.80;99.90;;;;;;5023630;28;20077;-54
2023/10/11 10:36:18;;;;;;;12.10;5.35;;;19.80;99.90;;;;;;5035971;28;20104;-54
2023/10/11 10:39:00;;;;;;;17.85;5.82;;;19.90;99.90;;;;;;5024328;28;20136;-55
2023/10/11 10:41:31;;;;;;;11.63;5.32;;;19.90;99.90;;;;;;5023278;28;20315;-55
2023/10/11 10:44:10;;;;;;;20.40;5.30;;;20.00;99.90;;;;;;5023317;28;20054;-54
2023/10/11 10:46:50;;;;;;;11.70;4.97;;;20.00;99.90;;;;;;5014508;28;20041;-54
2023/10/11 10:49:22;;;;;;;11.95;6.47;;;20.00;99.90;;;;;;5021006;28;20088;-54
2023/10/11 10:51:49;;;;;;;16.13;5.93;;;20.10;99.90;;;;;;5034171;28;20114;-55
2023/10/11 10:54:22;;;;;;;15.13;6.30;;;20.00;99.90;;;;;;5024459;28;20477;-55
2023/10/11 10:56:53;;;;;;;13.95;5.55;;;19.90;99.90;;;;;;5018167;28;20057;-56
2023/10/11 10:59:21;;;;;;;11.85;5.72;;;20.00;99.90;;;;;;5037952;28;20068;-56
2023/10/11 11:01:50;;;;;;;12.38;4.90;;;20.10;99.90;;;;;;5017257;28;20266;-55
2023/10/11 11:04:20;;;;;;;13.02;5.40;;;20.10;99.90;;;;;;5023228;28;20054;-55
2023/10/11 11:06:49;;;;;;;14.27;5.65;;;20.10;99.90;;;;;;5030808;28;20073;-55
2023/10/11 11:09:25;;;;;;;16.58;4.93;;;20.10;99.90;;;;;;5019187;28;20049;-55
2023/10/11 11:11:55;;;;;;;21.77;6.28;;;20.10;99.90;;;;;;5024703;28;20038;-53
2023/10/11 11:14:23;;;;;;;10.77;5.72;;;20.20;99.90;;;;;;5010690;28;20136;-55
2023/10/11 11:16:57;;;;;;;15.85;5.40;;;20.30;99.90;;;;;;5021218;28;20046;-54
2023/10/11 11:19:27;;;;;;;12.15;5.35;;;20.50;99.90;;;;;;5015171;28;20073;-56
2023/10/11 11:22:12;;;;;;;17.42;6.45;;;20.50;99.90;;;;;;5009353;28;20050;-53
2023/10/11 11:24:41;;;;;;;13.35;6.22;;;20.50;99.90;;;;;;5014576;28;20140;-55
2023/10/11 11:27:15;;;;;;;14.73;6.13;;;20.40;99.90;;;;;;5021575;28;20053;-54
2023/10/11 11:29:42;;;;;;;13.15;6.53;;;20.40;99.90;;;;;;5010998;28;20105;-55
2023/10/11 11:32:16;;;;;;;20.85;6.78;;;20.40;99.90;;;;;;5007468;28;20056;-56
2023/10/11 11:35:04;;;;;;;12.63;5.80;;;20.50;99.90;;;;;;5023678;28;20061;-56
2023/10/11 11:37:33;;;;;;;20.05;6.50;;;20.60;99.90;;;;;;5020877;28;20481;-56
2023/10/11 11:40:19;;;;;;;13.40;6.13;;;20.60;99.90;;;;;;5010177;28;20072;-55
2023/10/11 11:42:49;;;;;;;22.52;7.75;;;20.60;99.90;;;;;;5020318;28;20041;-55
2023/10/11 11:45:20;;;;;;;17.48;6.43;;;20.60;99.90;;;;;;5009943;28;20626;-57
2023/10/11 11:47:56;;;;;;;17.15;6.88;;;20.70;99.90;;;;;;5020745;28;20041;-56
2023/10/11 11:50:24;;;;;;;26.75;7.80;;;20.70;99.90;;;;;;5011092;28;20479;-56
2023/10/11 11:52:51;;;;;;;19.65;7.47;;;20.60;99.90;;;;;;5011740;28;20115;-56
2023/10/11 11:55:20;;;;;;;18.38;7.97;;;20.70;99.90;;;;;;5016231;28;20500;-56
2023/10/11 11:57:47;;;;;;;23.70;6.95;;;20.60;99.90;;;;;;5022740;28;20054;-56
2023/10/11 12:02:55;;;;;;;26.75;8.75;;;20.80;99.90;;;;;;5023681;28;20042;-56
2023/10/11 12:05:23;;;;;;;27.83;7.60;;;20.90;99.90;;;;;;5009752;28;20133;-55
2023/10/11 12:07:49;;;;;;;19.35;7.88;;;20.90;99.90;;;;;;5017660;28;20045;-56
2023/10/11 12:10:25;;;;;;;21.83;7.50;;;21.00;99.90;;;;;;5010776;28;20104;-56
2023/10/11 12:12:53;;;;;;;20.95;7.10;;;21.10;99.90;;;;;;5014189;28;20168;-54
2023/10/11 12:15:20;;;;;;;20.50;7.60;;;21.20;99.90;;;;;;5018652;28;20128;-56
2023/10/11 12:17:49;;;;;;;24.40;6.93;;;21.20;99.90;;;;;;5018806;28;20120;-56
2023/10/11 12:20:15;;;;;;;34.45;7.85;;;21.30;99.90;;;;;;5009231;28;20046;-54
2023/10/11 12:22:42;;;;;;;23.48;7.90;;;21.30;99.90;;;;;;5010795;28;20405;-55
2023/10/11 12:25:12;;;;;;;29.83;7.80;;;21.40;99.90;;;;;;5017258;28;20058;-52
2023/10/11 12:27:43;;;;;;;30.35;8.05;;;21.30;99.90;;;;;;5008982;28;20038;-56
2023/10/11 12:30:20;;;;;;;20.98;6.85;;;21.40;99.90;;;;;;5009587;28;20574;-55
2023/10/11 12:32:47;;;;;;;31.40;8.27;;;21.40;99.90;;;;;;5006284;28;20069;-56
2023/10/11 12:35:15;;;;;;;30.20;7.60;;;21.40;99.90;;;;;;5008304;28;20397;-56
2023/10/11 12:37:41;;;;;;;22.20;7.00;;;21.30;99.90;;;;;;5008882;28;20056;-56
2023/10/11 12:40:13;;;;;;;23.10;8.25;;;21.30;99.90;;;;;;5019967;28;20405;-56
2023/10/11 12:42:45;;;;;;;27.58;8.65;;;21.20;99.90;;;;;;5008599;28;20046;-55
2023/10/11 12:45:16;;;;;;;29.55;9.02;;;21.10;99.90;;;;;;5020135;28;20049;-55
2023/10/11 12:47:44;;;;;;;29.40;8.30;;;21.10;99.90;;;;;;5008517;28;20065;-54
2023/10/11 12:50:14;;;;;;;27.77;7.93;;;21.10;99.90;;;;;;5015984;28;20061;-55
2023/10/11 12:52:41;;;;;;;19.63;7.82;;;21.10;99.90;;;;;;5008471;28;20073;-53
2023/10/11 12:55:11;;;;;;;31.60;8.60;;;21.00;99.90;;;;;;5012853;28;20042;-54
2023/10/11 12:57:39;;;;;;;22.85;7.97;;;20.80;99.90;;;;;;5009044;28;20054;-56
2023/10/11 13:03:05;;;;;;;29.25;9.27;;;21.00;99.90;;;;;;5008719;28;20049;-55
2023/10/11 13:05:32;;;;;;;22.20;7.13;;;21.10;99.90;;;;;;5018121;28;20046;-55
2023/10/11 13:07:59;;;;;;;31.45;8.65;;;21.20;99.90;;;;;;5008709;28;20042;-55
2023/10/11 13:10:29;;;;;;;27.83;8.32;;;21.30;99.90;;;;;;5019069;28;20042;-57
2023/10/11 13:12:56;;;;;;;26.42;7.60;;;21.30;99.90;;;;;;5008226;28;20499;-55
2023/10/11 13:15:24;;;;;;;28.88;8.63;;;21.20;99.90;;;;;;5019450;28;20103;-54
2023/10/11 13:17:51;;;;;;;42.88;7.85;;;21.10;99.90;;;;;;5008124;28;20103;-56
2023/10/11 13:20:18;;;;;;;22.13;7.55;;;21.10;99.90;;;;;;5016358;28;20056;-55
2023/10/11 13:22:47;;;;;;;44.75;9.20;;;21.10;99.90;;;;;;5009630;28;20045;-55
2023/10/11 13:25:24;;;;;;;40.28;8.68;;;21.00;99.90;;;;;;5014879;28;20448;-54
2023/10/11 13:27:54;;;;;;;24.88;8.57;;;20.90;99.90;;;;;;4992743;28;20049;-56
2023/10/11 13:30:25;;;;;;;24.15;7.93;;;20.80;99.90;;;;;;5010824;28;20049;-60
2023/10/11 13:32:56;;;;;;;50.63;9.18;;;20.70;99.90;;;;;;5007751;28;20042;-53
2023/10/11 13:35:26;;;;;;;33.45;8.05;;;20.60;99.90;;;;;;5007308;28;20060;-55
2023/10/11 13:37:55;;;;;;;32.50;8.15;;;20.70;99.90;;;;;;5008172;28;20046;-54
2023/10/11 13:40:25;;;;;;;17.83;6.55;;;20.60;99.90;;;;;;5009518;28;20053;-54
2023/10/11 13:42:52;;;;;;;17.17;6.63;;;20.60;99.90;;;;;;5007988;28;20451;-55
2023/10/11 13:45:19;;;;;;;24.85;5.85;;;20.60;99.90;;;;;;5007718;28;20121;-55
2023/10/11 13:47:50;;;;;;;24.65;7.82;;;20.50;99.90;;;;;;5007866;28;20049;-54
2023/10/11 13:50:35;;;;;;;22.83;6.50;;;20.40;99.90;;;;;;5006394;28;20042;-54
2023/10/11 13:53:02;;;;;;;18.88;6.20;;;20.40;99.90;;;;;;5016364;28;20515;-54